Time;durP1;ratioP1;P1;durP2;ratioP2;P2;SDS_P1;SDS_P2;PMS_P1;PMS_P2;Temp;Humidity;BMP_temperature;BMP_pressure;BME280_temperature;BME280_humidity;BME280_pressure;Samples;Min_cycle;Max_cycle;Signal;HPM_P1;HPM_P2
2022/09/11 00:00:38;;;;;;;10.43;5.67;;;;;;;;;;4899755;29;20187;-43
2022/09/11 00:03:05;;;;;;;12.03;6.43;;;;;;;;;;4900773;29;20977;-43
2022/09/11 00:05:32;;;;;;;10.13;6.33;;;;;;;;;;4901088;29;20180;-43
2022/09/11 00:07:58;;;;;;;13.40;6.23;;;;;;;;;;4904241;29;20204;-41
2022/09/11 00:10:24;;;;;;;9.63;5.50;;;;;;;;;;4899424;29;20189;-42
2022/09/11 00:12:50;;;;;;;10.27;5.60;;;;;;;;;;4897207;29;20180;-42
2022/09/11 00:15:16;;;;;;;8.23;5.03;;;;;;;;;;4900586;29;20504;-42
2022/09/11 00:17:42;;;;;;;8.53;4.87;;;;;;;;;;4901564;29;21023;-42
2022/09/11 00:20:09;;;;;;;9.13;4.20;;;;;;;;;;4904735;29;20263;-42
2022/09/11 00:22:35;;;;;;;13.50;5.37;;;;;;;;;;4903294;29;20316;-43
2022/09/11 00:25:01;;;;;;;9.37;5.50;;;;;;;;;;4897516;29;20320;-43
2022/09/11 00:27:27;;;;;;;11.97;5.87;;;;;;;;;;4898311;29;20199;-43
2022/09/11 00:29:53;;;;;;;12.07;6.30;;;;;;;;;;4899301;29;20510;-43
2022/09/11 00:32:19;;;;;;;10.60;5.13;;;;;;;;;;4902262;29;20180;-43
2022/09/11 00:34:46;;;;;;;11.33;5.23;;;;;;;;;;4908456;28;20807;-43
2022/09/11 00:37:12;;;;;;;11.07;5.30;;;;;;;;;;4897293;29;20259;-43
2022/09/11 00:39:38;;;;;;;12.10;5.20;;;;;;;;;;4900987;29;20195;-43
2022/09/11 00:42:05;;;;;;;10.17;4.77;;;;;;;;;;4900163;29;20687;-41
2022/09/11 00:44:31;;;;;;;6.17;4.43;;;;;;;;;;4897413;29;20247;-43
2022/09/11 00:46:59;;;;;;;9.30;4.90;;;;;;;;;;4895037;29;20208;-43
2022/09/11 00:49:44;;;;;;;11.20;4.90;;;;;;;;;;4900460;29;21007;-43
2022/09/11 00:52:16;;;;;;;10.50;4.70;;;;;;;;;;4900716;29;20649;-43
2022/09/11 00:54:55;;;;;;;10.20;4.90;;;;;;;;;;4899685;29;20176;-43
2022/09/11 00:57:22;;;;;;;9.00;5.20;;;;;;;;;;4897065;29;20179;-43
2022/09/11 00:59:49;;;;;;;9.33;4.80;;;;;;;;;;4898370;29;20188;-43
2022/09/11 01:02:18;;;;;;;11.20;4.63;;;;;;;;;;4899662;29;20818;-43
2022/09/11 01:04:45;;;;;;;9.77;4.47;;;;;;;;;;4899183;29;20689;-42
2022/09/11 01:07:12;;;;;;;12.90;5.20;;;;;;;;;;4897421;29;20208;-42
2022/09/11 01:09:38;;;;;;;9.60;4.80;;;;;;;;;;4895944;29;20484;-42
2022/09/11 01:12:17;;;;;;;10.33;5.60;;;;;;;;;;4900881;29;20677;-43
2022/09/11 01:15:03;;;;;;;11.77;6.33;;;;;;;;;;4899579;29;20179;-43
2022/09/11 01:17:39;;;;;;;9.63;6.00;;;;;;;;;;4896859;29;20213;-42
2022/09/11 01:20:43;;;;;;;12.47;7.47;;;;;;;;;;4898774;29;20810;-43
2022/09/11 01:23:21;;;;;;;8.67;6.00;;;;;;;;;;4931971;28;20806;-43
2022/09/11 01:25:53;;;;;;;11.90;6.50;;;;;;;;;;4934213;28;20194;-43
2022/09/11 01:28:22;;;;;;;9.93;6.80;;;;;;;;;;4913428;28;20721;-42
2022/09/11 01:30:53;;;;;;;11.87;7.80;;;;;;;;;;4894495;29;20612;-42
2022/09/11 01:33:34;;;;;;;8.43;6.17;;;;;;;;;;4898864;28;20188;-43
2022/09/11 01:36:03;;;;;;;11.17;6.70;;;;;;;;;;4898270;29;20779;-42
2022/09/11 01:38:30;;;;;;;9.67;7.00;;;;;;;;;;4899448;29;21034;-42
2022/09/11 01:41:00;;;;;;;11.93;7.50;;;;;;;;;;4897233;29;20180;-43
2022/09/11 01:43:29;;;;;;;14.13;8.70;;;;;;;;;;4893606;29;20379;-43
2022/09/11 01:45:58;;;;;;;11.93;8.00;;;;;;;;;;4899307;29;20184;-43
2022/09/11 01:48:26;;;;;;;11.80;8.10;;;;;;;;;;4900036;29;20431;-43
2022/09/11 01:50:53;;;;;;;10.67;8.30;;;;;;;;;;4894999;29;20681;-43
2022/09/11 01:53:21;;;;;;;10.40;7.30;;;;;;;;;;4897265;29;20275;-42
2022/09/11 01:55:57;;;;;;;8.73;6.90;;;;;;;;;;4899752;29;20180;-43
2022/09/11 01:58:28;;;;;;;10.33;7.13;;;;;;;;;;4901406;29;20188;-43
2022/09/11 02:00:56;;;;;;;11.63;5.77;;;;;;;;;;4897596;29;20187;-42
2022/09/11 02:03:28;;;;;;;8.70;5.50;;;;;;;;;;4894364;29;20602;-43
2022/09/11 02:05:59;;;;;;;10.03;5.73;;;;;;;;;;4899048;29;20184;-43
2022/09/11 02:08:38;;;;;;;10.53;5.50;;;;;;;;;;4899370;29;20721;-42
2022/09/11 02:11:05;;;;;;;7.10;5.20;;;;;;;;;;4899995;28;20659;-42
2022/09/11 02:13:44;;;;;;;7.63;5.53;;;;;;;;;;4899892;29;20905;-43
2022/09/11 02:16:33;;;;;;;7.33;5.27;;;;;;;;;;4900164;29;20462;-43
2022/09/11 02:19:01;;;;;;;8.67;5.57;;;;;;;;;;4901120;29;20187;-42
2022/09/11 02:21:27;;;;;;;7.17;5.37;;;;;;;;;;4900385;29;20222;-43
2022/09/11 02:23:54;;;;;;;9.80;5.23;;;;;;;;;;4902273;29;20194;-42
2022/09/11 02:26:22;;;;;;;9.70;5.50;;;;;;;;;;4903832;29;20184;-41
2022/09/11 02:28:48;;;;;;;6.10;5.10;;;;;;;;;;4899865;29;20391;-43
2022/09/11 02:31:17;;;;;;;6.00;4.40;;;;;;;;;;4901096;29;20604;-42
2022/09/11 02:33:43;;;;;;;8.67;5.30;;;;;;;;;;4901129;29;20234;-43
2022/09/11 02:36:16;;;;;;;7.30;4.40;;;;;;;;;;4902922;29;20486;-43
2022/09/11 02:39:08;;;;;;;5.40;4.30;;;;;;;;;;4898154;29;20176;-42
2022/09/11 02:41:54;;;;;;;4.47;3.60;;;;;;;;;;4901556;28;20271;-43
2022/09/11 02:44:28;;;;;;;6.27;3.57;;;;;;;;;;4903282;28;20203;-43
2022/09/11 02:47:00;;;;;;;5.30;4.03;;;;;;;;;;4904269;29;20196;-42
2022/09/11 02:49:32;;;;;;;4.70;3.47;;;;;;;;;;4900511;29;20286;-42
2022/09/11 02:52:17;;;;;;;5.30;3.27;;;;;;;;;;4900847;29;20210;-43
2022/09/11 02:54:53;;;;;;;6.13;3.60;;;;;;;;;;4914597;28;20176;-43
2022/09/11 02:57:36;;;;;;;4.87;3.10;;;;;;;;;;4903043;29;20190;-43
2022/09/11 03:00:04;;;;;;;4.57;2.83;;;;;;;;;;4903119;29;20188;-42
2022/09/11 03:02:32;;;;;;;8.57;3.00;;;;;;;;;;4899047;29;20583;-42
2022/09/11 03:04:58;;;;;;;3.83;3.00;;;;;;;;;;4900151;29;20374;-41
2022/09/11 03:07:24;;;;;;;4.70;2.80;;;;;;;;;;4902964;29;20267;-42
2022/09/11 03:09:50;;;;;;;5.23;3.20;;;;;;;;;;4903280;29;20319;-43
2022/09/11 03:12:17;;;;;;;5.00;3.07;;;;;;;;;;4913503;28;20491;-43
2022/09/11 03:14:43;;;;;;;4.30;2.80;;;;;;;;;;4901295;29;20169;-43
2022/09/11 03:17:10;;;;;;;6.10;3.20;;;;;;;;;;4902773;28;20407;-43
2022/09/11 03:19:36;;;;;;;5.07;3.57;;;;;;;;;;4906683;29;20529;-42
2022/09/11 03:22:02;;;;;;;4.23;3.53;;;;;;;;;;4900742;29;20243;-42
2022/09/11 03:24:28;;;;;;;4.70;3.50;;;;;;;;;;4901603;29;20200;-42
2022/09/11 03:26:54;;;;;;;4.43;3.37;;;;;;;;;;4901580;29;20760;-43
2022/09/11 03:29:20;;;;;;;4.93;3.20;;;;;;;;;;4902632;29;20180;-43
2022/09/11 03:31:47;;;;;;;6.07;3.27;;;;;;;;;;4897847;29;20531;-41
2022/09/11 03:34:13;;;;;;;6.27;3.13;;;;;;;;;;4901357;29;20518;-43
2022/09/11 03:36:39;;;;;;;4.63;2.80;;;;;;;;;;4898297;29;20909;-41
2022/09/11 03:39:05;;;;;;;5.13;2.80;;;;;;;;;;4900620;29;20294;-42
2022/09/11 03:41:32;;;;;;;4.60;2.70;;;;;;;;;;4898446;29;20187;-42
2022/09/11 03:43:58;;;;;;;3.70;3.00;;;;;;;;;;4899787;29;20255;-42
2022/09/11 03:46:24;;;;;;;4.40;2.90;;;;;;;;;;4898473;29;20192;-43
2022/09/11 03:48:52;;;;;;;4.43;2.67;;;;;;;;;;4901262;29;20739;-42
2022/09/11 03:51:18;;;;;;;3.40;2.77;;;;;;;;;;4900753;29;20172;-42
2022/09/11 03:53:44;;;;;;;6.23;3.13;;;;;;;;;;4903233;29;20876;-44
2022/09/11 03:56:10;;;;;;;5.57;2.93;;;;;;;;;;4898594;29;20820;-43
2022/09/11 03:58:37;;;;;;;5.80;3.10;;;;;;;;;;4899942;29;20202;-41
2022/09/11 04:01:14;;;;;;;18.50;5.00;;;;;;;;;;4899433;29;20194;-42
2022/09/11 04:03:41;;;;;;;23.20;5.40;;;;;;;;;;4899165;29;20180;-43
2022/09/11 04:06:07;;;;;;;20.83;5.03;;;;;;;;;;4899242;29;20211;-43
2022/09/11 04:08:34;;;;;;;21.67;5.80;;;;;;;;;;4899863;29;20720;-41
2022/09/11 04:11:01;;;;;;;16.20;4.20;;;;;;;;;;4900229;29;20182;-43
2022/09/11 04:13:32;;;;;;;12.47;3.97;;;;;;;;;;4900134;29;20182;-43
2022/09/11 04:15:59;;;;;;;19.77;5.07;;;;;;;;;;4901654;29;20590;-42
2022/09/11 04:18:25;;;;;;;15.43;4.50;;;;;;;;;;4900368;29;20188;-42
2022/09/11 04:20:51;;;;;;;16.53;5.03;;;;;;;;;;4899163;29;20515;-42
2022/09/11 04:23:17;;;;;;;18.20;5.30;;;;;;;;;;4899629;29;20759;-43
2022/09/11 04:25:43;;;;;;;19.03;5.37;;;;;;;;;;4900854;29;20554;-42
2022/09/11 04:28:09;;;;;;;11.47;3.83;;;;;;;;;;4897628;29;20315;-43
2022/09/11 04:30:38;;;;;;;4.37;3.00;;;;;;;;;;4896223;29;20183;-43
2022/09/11 04:33:05;;;;;;;4.47;3.40;;;;;;;;;;4899810;29;20595;-43
2022/09/11 04:35:31;;;;;;;5.43;3.10;;;;;;;;;;4900535;29;20625;-41
2022/09/11 04:37:58;;;;;;;6.53;3.03;;;;;;;;;;4899858;29;20459;-43
2022/09/11 04:40:24;;;;;;;9.67;4.30;;;;;;;;;;4895971;29;20217;-43
2022/09/11 04:42:50;;;;;;;10.63;3.97;;;;;;;;;;4897121;29;20192;-42
2022/09/11 04:45:16;;;;;;;3.20;2.87;;;;;;;;;;4896979;29;20463;-43
2022/09/11 04:47:42;;;;;;;5.30;3.20;;;;;;;;;;4903975;29;20215;-42
2022/09/11 04:50:09;;;;;;;5.50;3.27;;;;;;;;;;4904391;29;20187;-42
2022/09/11 04:52:35;;;;;;;4.23;3.10;;;;;;;;;;4903384;29;21111;-42
2022/09/11 04:55:01;;;;;;;3.57;2.63;;;;;;;;;;4899947;29;20189;-43
2022/09/11 04:57:30;;;;;;;3.30;2.57;;;;;;;;;;4895436;29;20456;-43
2022/09/11 04:59:57;;;;;;;6.17;3.00;;;;;;;;;;4899417;29;20704;-42
2022/09/11 05:02:23;;;;;;;4.13;2.40;;;;;;;;;;4900743;29;20184;-43
2022/09/11 05:04:49;;;;;;;4.70;2.67;;;;;;;;;;4901133;29;20180;-43
2022/09/11 05:07:15;;;;;;;5.13;2.80;;;;;;;;;;4897368;29;20948;-42
2022/09/11 05:09:41;;;;;;;4.70;2.97;;;;;;;;;;4896119;29;20188;-42
2022/09/11 05:12:08;;;;;;;4.80;2.83;;;;;;;;;;4901246;29;20428;-43
2022/09/11 05:14:34;;;;;;;3.57;2.43;;;;;;;;;;4898238;29;20176;-43
2022/09/11 05:17:00;;;;;;;3.83;2.40;;;;;;;;;;4896741;29;20180;-42
2022/09/11 05:19:26;;;;;;;5.47;2.67;;;;;;;;;;4900202;28;20184;-40
2022/09/11 05:21:54;;;;;;;4.27;2.33;;;;;;;;;;4900522;28;20527;-42
2022/09/11 05:24:20;;;;;;;4.33;2.60;;;;;;;;;;4900096;29;20208;-42
2022/09/11 05:26:46;;;;;;;3.87;2.33;;;;;;;;;;4898308;29;20991;-43
2022/09/11 05:29:13;;;;;;;2.97;2.40;;;;;;;;;;4895958;29;20186;-43
2022/09/11 05:31:40;;;;;;;6.50;2.47;;;;;;;;;;4908321;28;20210;-43
2022/09/11 05:34:06;;;;;;;3.80;2.43;;;;;;;;;;4903056;29;20705;-42
2022/09/11 05:36:34;;;;;;;2.57;2.20;;;;;;;;;;4899502;29;20568;-43
2022/09/11 05:39:00;;;;;;;4.60;2.27;;;;;;;;;;4898470;29;20736;-43
2022/09/11 05:41:27;;;;;;;3.37;2.13;;;;;;;;;;4898964;29;20176;-43
2022/09/11 05:43:53;;;;;;;4.67;2.17;;;;;;;;;;4900761;29;20374;-44
2022/09/11 05:46:20;;;;;;;3.30;2.50;;;;;;;;;;4900479;29;20544;-44
2022/09/11 05:48:47;;;;;;;4.70;2.80;;;;;;;;;;4901756;29;20270;-44
2022/09/11 05:51:20;;;;;;;4.10;2.77;;;;;;;;;;4900306;29;20184;-44
2022/09/11 05:53:49;;;;;;;3.50;2.37;;;;;;;;;;4904510;29;20656;-43
2022/09/11 05:56:19;;;;;;;4.40;2.50;;;;;;;;;;4903549;29;20184;-44
2022/09/11 05:58:47;;;;;;;4.30;2.60;;;;;;;;;;4901215;29;20207;-44
2022/09/11 06:01:14;;;;;;;4.63;3.10;;;;;;;;;;4899760;29;20207;-44
2022/09/11 06:03:40;;;;;;;5.13;2.97;;;;;;;;;;4900039;29;20188;-44
2022/09/11 06:06:07;;;;;;;5.27;3.03;;;;;;;;;;4903284;29;20183;-44
2022/09/11 06:08:34;;;;;;;5.00;3.00;;;;;;;;;;4899207;29;21302;-44
2022/09/11 06:11:01;;;;;;;6.80;3.43;;;;;;;;;;4898353;29;20518;-43
2022/09/11 06:13:32;;;;;;;9.83;4.20;;;;;;;;;;4898822;29;20689;-44
2022/09/11 06:15:59;;;;;;;7.93;3.80;;;;;;;;;;4903290;29;20238;-44
2022/09/11 06:18:25;;;;;;;5.57;3.77;;;;;;;;;;4898064;29;20499;-44
2022/09/11 06:21:18;;;;;;;9.60;4.17;;;;;;;;;;4897419;28;20205;-44
2022/09/11 06:23:44;;;;;;;11.00;4.80;;;;;;;;;;4902391;29;20311;-44
2022/09/11 06:26:11;;;;;;;8.20;4.30;;;;;;;;;;4902296;29;20191;-44
2022/09/11 06:28:38;;;;;;;6.27;4.13;;;;;;;;;;4901612;29;20959;-43
2022/09/11 06:31:05;;;;;;;9.80;4.57;;;;;;;;;;4899845;29;20291;-44
2022/09/11 06:33:33;;;;;;;8.33;4.70;;;;;;;;;;4897979;29;20180;-42
2022/09/11 06:36:02;;;;;;;10.63;4.67;;;;;;;;;;4903879;29;22598;-44
2022/09/11 06:38:28;;;;;;;7.40;4.60;;;;;;;;;;4900731;29;20179;-43
2022/09/11 06:40:55;;;;;;;10.47;5.60;;;;;;;;;;4897403;29;20188;-44
2022/09/11 06:43:21;;;;;;;12.27;5.93;;;;;;;;;;4899563;29;20195;-44
2022/09/11 06:45:47;;;;;;;10.23;6.17;;;;;;;;;;4902490;29;20208;-44
2022/09/11 06:48:18;;;;;;;12.00;6.63;;;;;;;;;;4903947;29;21015;-44
2022/09/11 06:50:44;;;;;;;11.30;7.10;;;;;;;;;;4903314;29;20184;-44
2022/09/11 06:53:10;;;;;;;16.10;7.10;;;;;;;;;;4900608;29;20991;-44
2022/09/11 06:55:38;;;;;;;12.87;7.13;;;;;;;;;;4902534;29;20180;-44
2022/09/11 06:58:04;;;;;;;13.00;7.43;;;;;;;;;;4900309;29;20614;-44
2022/09/11 07:00:30;;;;;;;12.27;7.27;;;;;;;;;;4898759;29;20222;-44
2022/09/11 07:02:56;;;;;;;13.13;7.40;;;;;;;;;;4898820;29;20904;-44
2022/09/11 07:05:24;;;;;;;12.60;8.63;;;;;;;;;;4900211;29;20608;-44
2022/09/11 07:07:51;;;;;;;12.03;8.33;;;;;;;;;;4900880;29;20279;-44
2022/09/11 07:10:18;;;;;;;14.93;9.77;;;;;;;;;;4900884;29;20181;-44
2022/09/11 07:12:44;;;;;;;16.77;9.40;;;;;;;;;;4901684;29;20678;-44
2022/09/11 07:15:10;;;;;;;16.70;11.17;;;;;;;;;;4898528;29;20421;-44
2022/09/11 07:17:36;;;;;;;19.67;11.63;;;;;;;;;;4899794;29;20290;-44
2022/09/11 07:20:07;;;;;;;17.80;11.83;;;;;;;;;;4901072;29;20192;-44
2022/09/11 07:22:34;;;;;;;20.50;12.63;;;;;;;;;;4901222;29;20594;-44
2022/09/11 07:25:00;;;;;;;20.30;13.07;;;;;;;;;;4898612;28;20306;-44
2022/09/11 07:27:27;;;;;;;24.10;13.40;;;;;;;;;;4896188;29;20642;-44
2022/09/11 07:29:53;;;;;;;19.20;12.30;;;;;;;;;;4900418;29;20399;-44
2022/09/11 07:32:19;;;;;;;15.63;11.57;;;;;;;;;;4899378;29;20653;-44
2022/09/11 07:34:46;;;;;;;15.43;12.17;;;;;;;;;;4900843;29;20191;-44
2022/09/11 07:37:12;;;;;;;17.77;11.33;;;;;;;;;;4899929;29;20788;-44
2022/09/11 07:39:39;;;;;;;18.93;11.83;;;;;;;;;;4901554;29;20650;-44
2022/09/11 07:42:08;;;;;;;18.77;12.17;;;;;;;;;;4901424;29;20271;-44
2022/09/11 07:44:35;;;;;;;17.87;11.83;;;;;;;;;;4897881;29;20190;-44
2022/09/11 07:47:01;;;;;;;21.03;12.63;;;;;;;;;;4898735;29;20956;-44
2022/09/11 07:49:28;;;;;;;19.27;12.67;;;;;;;;;;4900152;29;20741;-44
2022/09/11 07:51:54;;;;;;;20.00;13.43;;;;;;;;;;4898473;29;20187;-43
2022/09/11 07:54:20;;;;;;;23.20;13.80;;;;;;;;;;4899735;29;20290;-44
2022/09/11 07:56:47;;;;;;;20.23;13.47;;;;;;;;;;4898705;29;20536;-44
2022/09/11 07:59:13;;;;;;;20.30;13.33;;;;;;;;;;4899993;29;20215;-44
2022/09/11 08:01:41;;;;;;;22.60;14.13;;;;;;;;;;4900117;29;20369;-44
2022/09/11 08:04:09;;;;;;;20.53;13.10;;;;;;;;;;4899267;29;20184;-44
2022/09/11 08:06:36;;;;;;;23.60;13.70;;;;;;;;;;4899525;29;21061;-43
2022/09/11 08:09:11;;;;;;;19.67;12.93;;;;;;;;;;4896493;28;20208;-45
2022/09/11 08:11:47;;;;;;;19.20;13.20;;;;;;;;;;4897361;29;20701;-44
2022/09/11 08:14:14;;;;;;;19.63;12.07;;;;;;;;;;4898534;29;20748;-45
2022/09/11 08:16:40;;;;;;;17.20;11.33;;;;;;;;;;4898295;29;20208;-44
2022/09/11 08:19:07;;;;;;;14.73;10.23;;;;;;;;;;4902048;29;20676;-44
2022/09/11 08:21:34;;;;;;;19.73;11.73;;;;;;;;;;4897952;29;20287;-44
2022/09/11 08:24:00;;;;;;;20.17;11.27;;;;;;;;;;4898582;29;20219;-44
2022/09/11 08:26:27;;;;;;;17.93;9.93;;;;;;;;;;4900520;29;20191;-45
2022/09/11 08:28:54;;;;;;;15.83;9.40;;;;;;;;;;4901052;28;20606;-45
2022/09/11 08:31:21;;;;;;;17.70;10.70;;;;;;;;;;4897910;29;20207;-45
2022/09/11 08:33:50;;;;;;;14.13;9.83;;;;;;;;;;4899453;29;20295;-44
2022/09/11 08:36:16;;;;;;;15.27;10.37;;;;;;;;;;4899412;29;20599;-44
2022/09/11 08:38:43;;;;;;;13.97;9.00;;;;;;;;;;4900011;29;20351;-45
2022/09/11 08:41:11;;;;;;;17.30;10.10;;;;;;;;;;4897741;29;20199;-45
2022/09/11 08:43:44;;;;;;;13.10;8.20;;;;;;;;;;4898235;29;20290;-44
2022/09/11 08:46:11;;;;;;;13.43;8.53;;;;;;;;;;4895807;29;20613;-42
2022/09/11 08:48:37;;;;;;;14.13;8.60;;;;;;;;;;4900789;29;20870;-43
2022/09/11 08:51:03;;;;;;;10.67;7.43;;;;;;;;;;4900424;29;20179;-43
2022/09/11 08:53:32;;;;;;;12.73;7.80;;;;;;;;;;4895220;29;20178;-43
2022/09/11 08:56:08;;;;;;;12.80;7.63;;;;;;;;;;4897065;29;20574;-43
2022/09/11 08:59:07;;;;;;;14.60;7.43;;;;;;;;;;4900961;29;20510;-43
2022/09/11 09:01:44;;;;;;;12.33;7.73;;;;;;;;;;4885204;29;20188;-43
2022/09/11 09:04:20;;;;;;;11.50;7.33;;;;;;;;;;4897817;29;20418;-43
2022/09/11 09:06:52;;;;;;;12.90;8.43;;;;;;;;;;4900012;29;20980;-43
2022/09/11 09:09:18;;;;;;;10.37;6.60;;;;;;;;;;4895130;29;20383;-43
2022/09/11 09:12:05;;;;;;;13.70;7.87;;;;;;;;;;4900723;28;20479;-43
2022/09/11 09:14:31;;;;;;;12.00;7.17;;;;;;;;;;4897586;29;20951;-43
2022/09/11 09:17:00;;;;;;;9.63;6.83;;;;;;;;;;4895529;29;20648;-43
2022/09/11 09:19:33;;;;;;;12.77;7.83;;;;;;;;;;4894962;29;20768;-43
2022/09/11 09:22:11;;;;;;;16.23;8.70;;;;;;;;;;4897212;29;20184;-43
2022/09/11 09:24:42;;;;;;;16.87;7.70;;;;;;;;;;4896316;29;20617;-43
2022/09/11 09:27:12;;;;;;;12.10;8.10;;;;;;;;;;4893794;29;20184;-43
2022/09/11 09:29:39;;;;;;;11.97;7.97;;;;;;;;;;4894799;29;20375;-42
2022/09/11 09:32:06;;;;;;;10.17;6.50;;;;;;;;;;4895196;29;20725;-43
2022/09/11 09:34:34;;;;;;;10.87;6.67;;;;;;;;;;4894607;29;20176;-42
2022/09/11 09:37:36;;;;;;;14.33;6.47;;;;;;;;;;4896319;29;20982;-43
2022/09/11 09:40:04;;;;;;;11.77;6.97;;;;;;;;;;4929485;28;20750;-41
2022/09/11 09:42:42;;;;;;;17.07;9.00;;;;;;;;;;4901856;28;20200;-43
2022/09/11 09:45:27;;;;;;;18.00;7.20;;;;;;;;;;4896411;29;20243;-41
2022/09/11 09:47:53;;;;;;;9.87;6.80;;;;;;;;;;4896447;29;20756;-43
2022/09/11 09:50:21;;;;;;;7.40;6.03;;;;;;;;;;4899727;29;20187;-42
2022/09/11 09:52:48;;;;;;;10.67;6.00;;;;;;;;;;4897336;29;20184;-41
2022/09/11 09:55:15;;;;;;;10.80;7.53;;;;;;;;;;4895424;29;20192;-42
2022/09/11 09:57:42;;;;;;;9.90;6.70;;;;;;;;;;4897152;29;20468;-43
2022/09/11 10:00:08;;;;;;;13.60;7.80;;;;;;;;;;4897614;29;20184;-43
2022/09/11 10:02:53;;;;;;;12.80;7.17;;;;;;;;;;4898190;29;20188;-42
2022/09/11 10:05:41;;;;;;;10.33;5.90;;;;;;;;;;4890899;29;20661;-42
2022/09/11 10:08:24;;;;;;;13.83;5.67;;;;;;;;;;4894665;29;20196;-42
2022/09/11 10:10:57;;;;;;;11.63;5.73;;;;;;;;;;4897356;29;20172;-43
2022/09/11 10:13:33;;;;;;;8.47;5.27;;;;;;;;;;4893452;29;20183;-43
2022/09/11 10:16:01;;;;;;;11.70;6.40;;;;;;;;;;4896148;29;20518;-42
2022/09/11 10:18:29;;;;;;;9.77;5.50;;;;;;;;;;4896499;29;20691;-43
2022/09/11 10:21:11;;;;;;;11.43;5.67;;;;;;;;;;4898462;29;20181;-42
2022/09/11 10:23:46;;;;;;;9.10;4.37;;;;;;;;;;4895559;29;20185;-42
2022/09/11 10:26:24;;;;;;;12.87;5.53;;;;;;;;;;4895953;29;20251;-43
2022/09/11 10:28:50;;;;;;;9.43;5.50;;;;;;;;;;4891525;29;20211;-43
2022/09/11 10:31:17;;;;;;;12.20;6.03;;;;;;;;;;4898069;29;20224;-42
2022/09/11 10:33:55;;;;;;;10.23;5.77;;;;;;;;;;4901246;29;20175;-43
2022/09/11 10:36:22;;;;;;;10.87;4.87;;;;;;;;;;4899718;28;20492;-43
2022/09/11 10:38:50;;;;;;;7.07;4.47;;;;;;;;;;4897110;29;20184;-43
2022/09/11 10:41:19;;;;;;;12.03;4.47;;;;;;;;;;4899549;29;20630;-43
2022/09/11 10:43:49;;;;;;;8.17;3.87;;;;;;;;;;4902382;29;20192;-43
2022/09/11 10:46:21;;;;;;;8.33;4.17;;;;;;;;;;4900020;29;20375;-43
2022/09/11 10:49:10;;;;;;;11.70;4.60;;;;;;;;;;4896914;29;20206;-43
2022/09/11 10:51:40;;;;;;;11.80;4.53;;;;;;;;;;4899021;28;20271;-42
2022/09/11 10:54:16;;;;;;;7.77;4.60;;;;;;;;;;4896809;29;20179;-42
2022/09/11 10:57:04;;;;;;;9.10;4.13;;;;;;;;;;4898602;29;20180;-42
2022/09/11 10:59:54;;;;;;;6.17;4.40;;;;;;;;;;4901168;29;20199;-42
2022/09/11 11:02:31;;;;;;;8.13;4.33;;;;;;;;;;4898638;29;20605;-43
2022/09/11 11:04:59;;;;;;;7.33;4.40;;;;;;;;;;4901928;29;20740;-42
2022/09/11 11:07:35;;;;;;;10.43;4.23;;;;;;;;;;4902793;29;20188;-43
2022/09/11 11:10:16;;;;;;;6.13;3.50;;;;;;;;;;4899931;29;20180;-42
2022/09/11 11:12:48;;;;;;;9.43;3.50;;;;;;;;;;4899783;29;20219;-43
2022/09/11 11:15:27;;;;;;;7.33;3.83;;;;;;;;;;4900383;29;20633;-43
2022/09/11 11:18:12;;;;;;;8.00;4.10;;;;;;;;;;4898456;29;20295;-43
2022/09/11 11:20:39;;;;;;;10.30;4.30;;;;;;;;;;4904514;29;20491;-43
2022/09/11 11:23:21;;;;;;;6.80;3.70;;;;;;;;;;4901560;29;20192;-42
2022/09/11 11:25:53;;;;;;;6.00;3.00;;;;;;;;;;4899686;29;20533;-41
2022/09/11 11:28:28;;;;;;;7.33;3.33;;;;;;;;;;4898616;29;20199;-43
2022/09/11 11:31:00;;;;;;;6.17;3.07;;;;;;;;;;4902533;29;20184;-42
2022/09/11 11:33:30;;;;;;;6.33;2.87;;;;;;;;;;4900219;29;20172;-43
2022/09/11 11:35:59;;;;;;;5.87;3.00;;;;;;;;;;4901236;29;20697;-43
2022/09/11 11:38:48;;;;;;;8.10;3.10;;;;;;;;;;4899820;29;20188;-43
2022/09/11 11:41:25;;;;;;;7.00;3.03;;;;;;;;;;4902542;29;20187;-43
2022/09/11 11:43:52;;;;;;;7.07;3.10;;;;;;;;;;4900743;29;20316;-43
2022/09/11 11:46:27;;;;;;;6.97;3.60;;;;;;;;;;4899800;29;20744;-43
2022/09/11 11:49:05;;;;;;;10.47;3.40;;;;;;;;;;4911743;28;20230;-43
2022/09/11 11:51:38;;;;;;;7.40;2.90;;;;;;;;;;4901184;29;20200;-43
2022/09/11 11:54:13;;;;;;;5.80;2.87;;;;;;;;;;4898791;29;20788;-43
2022/09/11 11:56:48;;;;;;;5.53;2.87;;;;;;;;;;4898831;29;20214;-41
2022/09/11 11:59:17;;;;;;;4.67;2.83;;;;;;;;;;4900807;29;20201;-43
2022/09/11 12:01:50;;;;;;;4.80;2.90;;;;;;;;;;4898259;29;20860;-43
2022/09/11 12:04:34;;;;;;;6.77;3.10;;;;;;;;;;4899815;29;20828;-43
2022/09/11 12:07:02;;;;;;;5.13;2.60;;;;;;;;;;4900131;29;20490;-43
2022/09/11 12:09:30;;;;;;;8.20;2.57;;;;;;;;;;4901221;29;20443;-43
2022/09/11 12:12:03;;;;;;;5.07;2.40;;;;;;;;;;4901002;29;20195;-42
2022/09/11 12:14:32;;;;;;;6.53;2.30;;;;;;;;;;4900588;29;20181;-43
2022/09/11 12:17:15;;;;;;;5.67;2.30;;;;;;;;;;4897750;29;20194;-43
2022/09/11 12:20:02;;;;;;;4.93;2.30;;;;;;;;;;4901609;29;20195;-43
2022/09/11 12:22:37;;;;;;;4.97;2.27;;;;;;;;;;4898700;29;20694;-43
2022/09/11 12:25:03;;;;;;;3.97;2.13;;;;;;;;;;4896809;29;20498;-43
2022/09/11 12:27:50;;;;;;;6.90;2.10;;;;;;;;;;4899171;29;20185;-43
2022/09/11 12:30:16;;;;;;;5.57;2.70;;;;;;;;;;4900225;29;20663;-43
2022/09/11 12:32:52;;;;;;;4.30;2.23;;;;;;;;;;4900731;29;20745;-43
2022/09/11 12:35:22;;;;;;;4.13;2.30;;;;;;;;;;4898681;29;20924;-43
2022/09/11 12:38:12;;;;;;;5.33;2.30;;;;;;;;;;4910325;28;20609;-43
2022/09/11 12:40:41;;;;;;;5.13;2.10;;;;;;;;;;4903565;28;20463;-42
2022/09/11 12:43:25;;;;;;;4.43;2.10;;;;;;;;;;4901692;29;20185;-43
2022/09/11 12:45:51;;;;;;;4.07;2.63;;;;;;;;;;4901211;29;20204;-43
2022/09/11 12:48:22;;;;;;;5.27;2.50;;;;;;;;;;4899396;29;20231;-43
2022/09/11 12:50:49;;;;;;;5.40;2.37;;;;;;;;;;4896413;29;20604;-43
2022/09/11 12:53:18;;;;;;;6.63;2.50;;;;;;;;;;4895991;29;20387;-43
2022/09/11 12:55:56;;;;;;;6.07;2.17;;;;;;;;;;4899451;29;20507;-41
2022/09/11 12:58:23;;;;;;;5.63;2.73;;;;;;;;;;4890587;29;20187;-42
2022/09/11 13:00:53;;;;;;;6.57;2.40;;;;;;;;;;4891264;29;20180;-42
2022/09/11 13:03:22;;;;;;;5.10;2.40;;;;;;;;;;4894520;29;20184;-43
2022/09/11 13:05:59;;;;;;;3.87;2.17;;;;;;;;;;4899175;29;20741;-43
2022/09/11 13:08:26;;;;;;;5.30;1.90;;;;;;;;;;4894791;29;20203;-43
2022/09/11 13:10:53;;;;;;;2.87;1.97;;;;;;;;;;4896838;29;20274;-43
2022/09/11 13:13:34;;;;;;;3.93;2.10;;;;;;;;;;4894794;29;20190;-43
2022/09/11 13:16:17;;;;;;;5.37;1.80;;;;;;;;;;4899471;29;20180;-43
2022/09/11 13:18:44;;;;;;;4.57;1.90;;;;;;;;;;4896128;29;20294;-44
2022/09/11 13:21:10;;;;;;;5.47;1.90;;;;;;;;;;4894480;29;21286;-43
2022/09/11 13:23:36;;;;;;;4.43;2.10;;;;;;;;;;4895495;29;20195;-43
2022/09/11 13:26:05;;;;;;;7.00;2.20;;;;;;;;;;4894493;29;20199;-44
2022/09/11 13:28:34;;;;;;;10.87;2.30;;;;;;;;;;4894885;29;20200;-44
2022/09/11 13:31:03;;;;;;;5.17;2.20;;;;;;;;;;4896579;29;20547;-44
2022/09/11 13:33:30;;;;;;;4.67;2.30;;;;;;;;;;4894469;29;20184;-43
2022/09/11 13:36:01;;;;;;;5.23;2.17;;;;;;;;;;4895529;29;20172;-42
2022/09/11 13:38:33;;;;;;;4.07;2.10;;;;;;;;;;4894289;29;20176;-42
2022/09/11 13:41:03;;;;;;;4.33;2.50;;;;;;;;;;4896843;29;21161;-43
2022/09/11 13:43:48;;;;;;;8.83;2.40;;;;;;;;;;4897217;29;20664;-42
2022/09/11 13:46:14;;;;;;;4.07;2.00;;;;;;;;;;4895630;29;20472;-43
2022/09/11 13:48:42;;;;;;;4.13;2.00;;;;;;;;;;4894877;29;20323;-43
2022/09/11 13:51:16;;;;;;;4.13;2.10;;;;;;;;;;4894929;29;20183;-43
2022/09/11 13:53:43;;;;;;;3.40;1.73;;;;;;;;;;4897007;29;20397;-42
2022/09/11 13:56:27;;;;;;;4.57;1.90;;;;;;;;;;4896482;28;20180;-42
2022/09/11 13:58:53;;;;;;;9.13;2.50;;;;;;;;;;4896082;29;20267;-42
2022/09/11 14:01:20;;;;;;;5.07;2.50;;;;;;;;;;4895541;29;20616;-42
2022/09/11 14:03:48;;;;;;;4.10;1.97;;;;;;;;;;4898904;29;20243;-43
2022/09/11 14:06:18;;;;;;;4.60;2.17;;;;;;;;;;4897336;29;20604;-43
2022/09/11 14:08:55;;;;;;;5.33;2.30;;;;;;;;;;4899460;29;21102;-42
2022/09/11 14:11:32;;;;;;;3.90;2.10;;;;;;;;;;4898498;29;20963;-43
2022/09/11 14:14:00;;;;;;;4.20;2.00;;;;;;;;;;4902271;29;20644;-43
2022/09/11 14:16:26;;;;;;;3.10;1.60;;;;;;;;;;4901256;29;20293;-43
2022/09/11 14:19:12;;;;;;;5.13;1.97;;;;;;;;;;4901669;29;20517;-43
2022/09/11 14:21:39;;;;;;;4.53;2.10;;;;;;;;;;4898186;29;20184;-43
2022/09/11 14:24:21;;;;;;;2.40;1.83;;;;;;;;;;4902969;29;20762;-43
2022/09/11 14:26:47;;;;;;;4.00;2.20;;;;;;;;;;4902761;29;20187;-43
2022/09/11 14:29:23;;;;;;;7.03;2.20;;;;;;;;;;4897001;29;21110;-43
2022/09/11 14:31:50;;;;;;;4.30;2.00;;;;;;;;;;4900311;29;20561;-43
2022/09/11 14:34:19;;;;;;;6.60;2.20;;;;;;;;;;4898864;29;20327;-43
2022/09/11 14:36:48;;;;;;;5.23;2.23;;;;;;;;;;4904147;29;20601;-43
2022/09/11 14:39:25;;;;;;;5.87;2.20;;;;;;;;;;4898300;29;20352;-43
2022/09/11 14:41:54;;;;;;;4.77;2.00;;;;;;;;;;4899536;29;20278;-43
2022/09/11 14:44:21;;;;;;;3.63;1.87;;;;;;;;;;4896926;29;20812;-43
2022/09/11 14:46:47;;;;;;;4.60;2.00;;;;;;;;;;4899194;29;20275;-41
2022/09/11 14:49:14;;;;;;;3.93;1.87;;;;;;;;;;4898418;29;20527;-43
2022/09/11 14:51:41;;;;;;;5.73;1.97;;;;;;;;;;4898107;29;20973;-43
2022/09/11 14:54:12;;;;;;;5.47;2.03;;;;;;;;;;4895792;28;20908;-43